Time;durP1;ratioP1;P1;durP2;ratioP2;P2;SDS_P1;SDS_P2;PMS_P1;PMS_P2;Temp;Humidity;BMP_temperature;BMP_pressure;BME280_temperature;BME280_humidity;BME280_pressure;Samples;Min_cycle;Max_cycle;Signal;HPM_P1;HPM_P2
2022/11/18 00:01:12;;;;;;;15.52;6.63;;;;;;;;;;5003432;28;20026;-79
2022/11/18 00:03:38;;;;;;;;;;;;;;;;;;5022585;28;20094;-78
2022/11/18 00:06:04;;;;;;;10.63;6.47;;;;;;;;;;5006375;28;20406;-80
2022/11/18 00:08:30;;;;;;;10.23;6.40;;;;;;;;;;5038039;28;20390;-79
2022/11/18 00:10:55;;;;;;;11.40;7.03;;;;;;;;;;5026269;28;20017;-79
2022/11/18 00:16:12;;;;;;;16.77;7.63;;;;;;;;;;5010516;28;20045;-79
2022/11/18 00:18:38;;;;;;;14.68;7.53;;;;;;;;;;5042343;28;20086;-80
2022/11/18 00:21:11;;;;;;;15.82;7.57;;;;;;;;;;5031968;28;20022;-78
2022/11/18 00:23:37;;;;;;;12.83;7.03;;;;;;;;;;5000544;28;20033;-78
2022/11/18 00:26:11;;;;;;;12.63;7.20;;;;;;;;;;5020030;28;20255;-78
2022/11/18 00:28:36;;;;;;;12.32;6.97;;;;;;;;;;5018202;28;20018;-79
2022/11/18 00:31:05;;;;;;;14.75;7.32;;;;;;;;;;5017168;28;20141;-78
2022/11/18 00:33:30;;;;;;;13.68;7.90;;;;;;;;;;5018602;28;20022;-77
2022/11/18 00:35:56;;;;;;;14.93;7.90;;;;;;;;;;5026221;28;20429;-79
2022/11/18 00:38:21;;;;;;;13.30;6.90;;;;;;;;;;5036492;28;20490;-80
2022/11/18 00:40:47;;;;;;;13.43;7.78;;;;;;;;;;5039541;28;20360;-80
2022/11/18 00:43:12;;;;;;;14.75;7.70;;;;;;;;;;5014081;28;20033;-79
2022/11/18 00:45:37;;;;;;;10.80;6.68;;;;;;;;;;5000141;28;20045;-79
2022/11/18 00:48:03;;;;;;;14.32;7.07;;;;;;;;;;4996360;28;20033;-79
2022/11/18 00:50:28;;;;;;;12.10;6.45;;;;;;;;;;5007627;28;20061;-80
2022/11/18 00:52:53;;;;;;;14.13;7.88;;;;;;;;;;5036856;28;20025;-79
2022/11/18 00:55:18;;;;;;;16.13;7.65;;;;;;;;;;5036999;28;20025;-79
2022/11/18 00:57:44;;;;;;;15.32;7.82;;;;;;;;;;5037487;28;20471;-79
2022/11/18 01:00:10;;;;;;;12.60;7.22;;;;;;;;;;5035824;28;20029;-78
2022/11/18 01:02:35;;;;;;;15.32;8.23;;;;;;;;;;5035804;28;20052;-79
2022/11/18 01:05:00;;;;;;;15.23;7.82;;;;;;;;;;5036717;28;20022;-79
2022/11/18 01:07:26;;;;;;;14.35;7.38;;;;;;;;;;5035795;28;20026;-79
2022/11/18 01:09:51;;;;;;;15.23;7.75;;;;;;;;;;5039822;28;20471;-79
2022/11/18 01:15:00;;;;;;;14.43;7.53;;;;;;;;;;5038878;28;20064;-79
2022/11/18 01:17:28;;;;;;;15.60;8.05;;;;;;;;;;5037836;28;20029;-79
2022/11/18 01:19:54;;;;;;;12.73;7.35;;;;;;;;;;5038291;28;20030;-77
2022/11/18 01:22:19;;;;;;;15.95;8.35;;;;;;;;;;5002716;28;20479;-79
2022/11/18 01:24:45;;;;;;;14.48;7.60;;;;;;;;;;5000352;28;20026;-79
2022/11/18 01:27:10;;;;;;;13.82;7.22;;;;;;;;;;4998408;28;20073;-78
2022/11/18 01:29:35;;;;;;;12.27;6.72;;;;;;;;;;4980929;28;20081;-78
2022/11/18 01:32:00;;;;;;;12.85;6.97;;;;;;;;;;4997200;28;20050;-78
2022/11/18 01:34:29;;;;;;;15.02;8.15;;;;;;;;;;4998397;28;20033;-78
2022/11/18 01:36:55;;;;;;;16.90;8.05;;;;;;;;;;5035384;28;20056;-79
2022/11/18 01:39:21;;;;;;;14.23;8.52;;;;;;;;;;5038697;28;20026;-77
2022/11/18 01:41:46;;;;;;;12.70;7.93;;;;;;;;;;5038357;28;20495;-79
2022/11/18 01:44:49;;;;;;;16.85;8.45;;;;;;;;;;5038082;28;20423;-78
2022/11/18 01:47:14;;;;;;;15.77;8.10;;;;;;;;;;5038126;28;20024;-79
2022/11/18 01:49:39;;;;;;;16.15;8.05;;;;;;;;;;5035154;28;20030;-79
2022/11/18 01:52:05;;;;;;;16.23;8.60;;;;;;;;;;5020324;28;20475;-78
2022/11/18 01:54:34;;;;;;;14.40;7.80;;;;;;;;;;5002704;28;20030;-79
2022/11/18 01:57:04;;;;;;;16.35;8.35;;;;;;;;;;5024908;28;20093;-79
2022/11/18 01:59:34;;;;;;;13.88;7.65;;;;;;;;;;5022055;28;20485;-79
2022/11/18 02:02:04;;;;;;;14.57;7.88;;;;;;;;;;5019013;28;20022;-78
2022/11/18 02:04:29;;;;;;;17.15;8.45;;;;;;;;;;5021444;28;20117;-79
2022/11/18 02:06:55;;;;;;;12.63;7.93;;;;;;;;;;5037813;28;20056;-79
2022/11/18 02:09:21;;;;;;;19.20;7.85;;;;;;;;;;5039065;28;20021;-79
2022/11/18 02:11:49;;;;;;;13.35;8.07;;;;;;;;;;5038313;28;20029;-79
2022/11/18 02:14:19;;;;;;;14.77;8.18;;;;;;;;;;5038808;28;20068;-80
2022/11/18 02:17:17;;;;;;;14.38;8.35;;;;;;;;;;5020950;28;20100;-80
2022/11/18 02:19:45;;;;;;;14.85;8.73;;;;;;;;;;5036499;28;20529;-79
2022/11/18 02:22:35;;;;;;;15.73;8.35;;;;;;;;;;5020071;28;20064;-78
2022/11/18 02:25:37;;;;;;;16.85;8.55;;;;;;;;;;4998398;28;20027;-81
2022/11/18 02:28:14;;;;;;;15.40;8.15;;;;;;;;;;4999241;28;20018;-79
2022/11/18 02:30:55;;;;;;;13.15;7.45;;;;;;;;;;4999321;28;20022;-79
2022/11/18 02:33:37;;;;;;;13.35;6.88;;;;;;;;;;4997062;28;20026;-78
2022/11/18 02:36:13;;;;;;;12.65;7.63;;;;;;;;;;4998055;28;20030;-79
2022/11/18 02:38:44;;;;;;;13.30;7.53;;;;;;;;;;5015427;28;20041;-78
2022/11/18 02:41:15;;;;;;;15.35;7.43;;;;;;;;;;5015877;28;20553;-78
2022/11/18 02:43:54;;;;;;;14.25;7.70;;;;;;;;;;5007814;28;20033;-79
2022/11/18 02:46:25;;;;;;;14.20;8.55;;;;;;;;;;5017254;28;20450;-79
2022/11/18 02:48:53;;;;;;;17.13;8.85;;;;;;;;;;5000510;28;20069;-78
2022/11/18 02:51:23;;;;;;;15.07;9.07;;;;;;;;;;5017438;28;20026;-79
2022/11/18 02:53:49;;;;;;;16.00;8.32;;;;;;;;;;5019751;28;20043;-79
2022/11/18 02:56:17;;;;;;;15.05;7.40;;;;;;;;;;5019963;28;20550;-79
2022/11/18 02:58:43;;;;;;;14.73;8.05;;;;;;;;;;5020749;28;20036;-79
2022/11/18 03:01:17;;;;;;;15.00;8.00;;;;;;;;;;5022128;28;20034;-79
2022/11/18 03:03:42;;;;;;;15.57;8.30;;;;;;;;;;5002978;28;20022;-79
2022/11/18 03:06:20;;;;;;;14.13;8.23;;;;;;;;;;5016575;28;20042;-79
2022/11/18 03:08:53;;;;;;;14.68;7.65;;;;;;;;;;4999812;28;20068;-78
2022/11/18 03:11:22;;;;;;;11.07;7.30;;;;;;;;;;5016830;28;20014;-80
2022/11/18 03:14:16;;;;;;;14.07;7.22;;;;;;;;;;5020521;28;20036;-78
2022/11/18 03:16:50;;;;;;;10.80;6.23;;;;;;;;;;5021371;28;20026;-79
2022/11/18 03:19:39;;;;;;;14.27;6.85;;;;;;;;;;5000490;28;20032;-78
2022/11/18 03:22:23;;;;;;;12.48;7.28;;;;;;;;;;5001093;28;20415;-78
2022/11/18 03:25:14;;;;;;;11.85;7.15;;;;;;;;;;5020496;28;20025;-78
2022/11/18 03:27:49;;;;;;;14.27;7.50;;;;;;;;;;5016518;28;20511;-79
2022/11/18 03:30:17;;;;;;;10.88;6.82;;;;;;;;;;5041988;28;20033;-78
2022/11/18 03:32:48;;;;;;;12.07;6.95;;;;;;;;;;5041402;28;20071;-78
2022/11/18 03:35:20;;;;;;;11.30;6.60;;;;;;;;;;5041561;28;20021;-78
2022/11/18 03:37:49;;;;;;;11.55;6.97;;;;;;;;;;5039728;28;20102;-78
2022/11/18 03:40:23;;;;;;;10.90;6.32;;;;;;;;;;5017773;28;20025;-80
2022/11/18 03:42:52;;;;;;;13.48;7.43;;;;;;;;;;5001389;28;20052;-78
2022/11/18 03:45:22;;;;;;;11.68;6.85;;;;;;;;;;5022216;28;20109;-79
2022/11/18 03:47:54;;;;;;;15.98;8.10;;;;;;;;;;5007610;28;20026;-79
2022/11/18 03:50:24;;;;;;;13.00;7.60;;;;;;;;;;5027494;28;20030;-79
2022/11/18 03:52:52;;;;;;;13.23;7.65;;;;;;;;;;5023178;28;20391;-78
2022/11/18 03:55:22;;;;;;;12.20;7.47;;;;;;;;;;5026636;28;20502;-79
2022/11/18 03:57:59;;;;;;;16.50;7.25;;;;;;;;;;5040903;28;20033;-78
2022/11/18 04:00:28;;;;;;;12.10;6.75;;;;;;;;;;5021901;28;20029;-78
2022/11/18 04:02:54;;;;;;;14.38;7.70;;;;;;;;;;5039929;28;20085;-80
2022/11/18 04:05:19;;;;;;;13.73;7.03;;;;;;;;;;5038969;28;20509;-79
2022/11/18 04:07:50;;;;;;;15.38;8.10;;;;;;;;;;5020222;28;20022;-79
2022/11/18 04:10:18;;;;;;;15.13;7.80;;;;;;;;;;5031848;28;20032;-79
2022/11/18 04:12:49;;;;;;;19.17;9.38;;;;;;;;;;5017761;28;20170;-80
2022/11/18 04:15:15;;;;;;;16.75;9.18;;;;;;;;;;5000592;28;20025;-79
2022/11/18 04:17:41;;;;;;;18.98;10.50;;;;;;;;;;5018777;28;20079;-79
2022/11/18 04:20:14;;;;;;;21.35;10.20;;;;;;;;;;5021244;28;20105;-78
2022/11/18 04:22:39;;;;;;;17.85;10.13;;;;;;;;;;5020321;28;20029;-79
2022/11/18 04:25:04;;;;;;;19.05;10.70;;;;;;;;;;5030507;28;20036;-79
2022/11/18 04:27:29;;;;;;;20.65;9.98;;;;;;;;;;5039438;28;20021;-78
2022/11/18 04:29:55;;;;;;;18.80;10.35;;;;;;;;;;5036719;28;20030;-80
2022/11/18 04:32:20;;;;;;;17.17;9.45;;;;;;;;;;5040383;28;20025;-79
2022/11/18 04:34:45;;;;;;;21.15;10.60;;;;;;;;;;5022852;28;20048;-79
2022/11/18 04:37:10;;;;;;;21.92;10.43;;;;;;;;;;5021412;28;20033;-79
2022/11/18 04:39:36;;;;;;;17.35;9.55;;;;;;;;;;5011421;28;20036;-78
2022/11/18 04:42:01;;;;;;;20.20;11.20;;;;;;;;;;5006188;28;20017;-78
2022/11/18 04:44:29;;;;;;;18.45;10.43;;;;;;;;;;4996778;28;20032;-80
2022/11/18 04:46:56;;;;;;;18.92;10.27;;;;;;;;;;4997653;28;20105;-79
2022/11/18 04:49:23;;;;;;;19.92;10.20;;;;;;;;;;4999241;28;20097;-78
2022/11/18 04:51:48;;;;;;;21.27;10.48;;;;;;;;;;4998981;28;20018;-78
2022/11/18 04:54:14;;;;;;;16.33;9.55;;;;;;;;;;5019710;28;20040;-79
2022/11/18 04:56:40;;;;;;;22.90;11.50;;;;;;;;;;5037719;28;20067;-79
2022/11/18 04:59:06;;;;;;;24.63;11.43;;;;;;;;;;5016408;28;20376;-78
2022/11/18 05:01:32;;;;;;;13.88;7.85;;;;;;;;;;5034435;28;20029;-79
2022/11/18 05:03:59;;;;;;;18.80;10.75;;;;;;;;;;5017598;28;20048;-77
2022/11/18 05:06:25;;;;;;;11.85;6.80;;;;;;;;;;5017620;28;20021;-79
2022/11/18 05:08:50;;;;;;;20.55;11.02;;;;;;;;;;5034705;28;20471;-78
2022/11/18 05:13:59;;;;;;;22.27;10.43;;;;;;;;;;5034363;28;20124;-78
2022/11/18 05:16:25;;;;;;;18.75;10.43;;;;;;;;;;5034615;28;20061;-78
2022/11/18 05:18:50;;;;;;;21.67;10.93;;;;;;;;;;5034466;28;20490;-78
2022/11/18 05:21:16;;;;;;;18.58;10.65;;;;;;;;;;5016041;28;20025;-78
2022/11/18 05:23:41;;;;;;;20.23;10.52;;;;;;;;;;5032904;28;20601;-78
2022/11/18 05:26:08;;;;;;;23.30;10.98;;;;;;;;;;5030284;28;20054;-78
2022/11/18 05:28:35;;;;;;;20.05;10.43;;;;;;;;;;5015709;28;20058;-78
2022/11/18 05:31:09;;;;;;;17.13;9.93;;;;;;;;;;4999216;28;20022;-78
2022/11/18 05:33:35;;;;;;;17.45;10.30;;;;;;;;;;5017115;28;20426;-79
2022/11/18 05:36:05;;;;;;;19.67;9.70;;;;;;;;;;5018651;28;20048;-78
2022/11/18 05:38:32;;;;;;;19.50;10.95;;;;;;;;;;5017763;28;20376;-79
2022/11/18 05:40:57;;;;;;;18.42;10.00;;;;;;;;;;5018964;28;20032;-79
2022/11/18 05:43:23;;;;;;;20.90;10.02;;;;;;;;;;5016604;28;20124;-79
2022/11/18 05:45:50;;;;;;;21.80;10.25;;;;;;;;;;5036177;28;20029;-79
2022/11/18 05:48:16;;;;;;;19.50;10.48;;;;;;;;;;5036566;28;20025;-79
2022/11/18 05:50:41;;;;;;;26.95;11.27;;;;;;;;;;5036697;28;20034;-79
2022/11/18 05:53:07;;;;;;;22.98;11.15;;;;;;;;;;5036354;28;20078;-79
2022/11/18 05:55:41;;;;;;;23.25;11.85;;;;;;;;;;5039267;28;20029;-79
2022/11/18 05:58:06;;;;;;;;;;;;;;;;;;5000037;28;20027;-78
2022/11/18 06:00:31;;;;;;;18.67;9.70;;;;;;;;;;4999021;28;19914;-79
2022/11/18 06:02:58;;;;;;;18.42;9.48;;;;;;;;;;4998851;28;20737;-80
2022/11/18 06:05:24;;;;;;;16.38;8.55;;;;;;;;;;4999198;28;20049;-78
2022/11/18 06:07:52;;;;;;;19.30;10.00;;;;;;;;;;5000172;28;20022;-78
2022/11/18 06:10:23;;;;;;;19.05;10.00;;;;;;;;;;5000450;28;20058;-78
2022/11/18 06:12:51;;;;;;;18.55;9.38;;;;;;;;;;5037731;28;20077;-79
2022/11/18 06:15:21;;;;;;;18.70;9.52;;;;;;;;;;5038222;28;20021;-77
2022/11/18 06:17:58;;;;;;;18.05;9.77;;;;;;;;;;5037610;28;20038;-79
2022/11/18 06:20:25;;;;;;;18.98;9.23;;;;;;;;;;5037957;28;20021;-79
2022/11/18 06:22:53;;;;;;;15.38;8.73;;;;;;;;;;5037784;28;20025;-77
2022/11/18 06:25:19;;;;;;;19.55;9.88;;;;;;;;;;5017819;28;20108;-78
2022/11/18 06:27:46;;;;;;;19.95;10.05;;;;;;;;;;5019144;28;20451;-78
2022/11/18 06:30:12;;;;;;;17.60;8.45;;;;;;;;;;5036428;28;20433;-78
2022/11/18 06:32:37;;;;;;;16.30;8.75;;;;;;;;;;5010782;28;20032;-78
2022/11/18 06:35:03;;;;;;;16.48;8.73;;;;;;;;;;5004840;28;20022;-79
2022/11/18 06:37:28;;;;;;;19.90;9.57;;;;;;;;;;4996374;28;20129;-79
2022/11/18 06:39:53;;;;;;;17.35;8.98;;;;;;;;;;4998884;28;20144;-79
2022/11/18 06:45:03;;;;;;;16.48;9.30;;;;;;;;;;5018009;28;20089;-78
2022/11/18 06:47:29;;;;;;;12.88;6.75;;;;;;;;;;5018212;28;20034;-79
2022/11/18 06:49:54;;;;;;;15.43;8.68;;;;;;;;;;5016782;28;20022;-78
2022/11/18 06:52:21;;;;;;;17.10;9.55;;;;;;;;;;5016507;28;20399;-79
2022/11/18 06:54:46;;;;;;;15.65;8.48;;;;;;;;;;5017654;28;20037;-78
2022/11/18 06:57:11;;;;;;;13.35;7.20;;;;;;;;;;5016873;28;20029;-78
2022/11/18 06:59:37;;;;;;;8.38;5.05;;;;;;;;;;5034484;28;20025;-79
2022/11/18 07:02:02;;;;;;;8.63;4.82;;;;;;;;;;5032291;28;20038;-78
2022/11/18 07:04:27;;;;;;;13.82;7.55;;;;;;;;;;5018690;28;20030;-79
2022/11/18 07:06:52;;;;;;;11.73;6.15;;;;;;;;;;5018821;28;20022;-78
2022/11/18 07:09:18;;;;;;;10.75;6.10;;;;;;;;;;5019134;28;20041;-79
2022/11/18 07:11:43;;;;;;;11.15;5.40;;;;;;;;;;5016502;28;20033;-78
2022/11/18 07:14:09;;;;;;;9.18;5.88;;;;;;;;;;4999466;28;20034;-79
2022/11/18 07:16:35;;;;;;;11.75;6.40;;;;;;;;;;5019202;28;20022;-77
2022/11/18 07:19:06;;;;;;;12.55;5.60;;;;;;;;;;5016134;28;20039;-78
2022/11/18 07:21:31;;;;;;;7.78;4.40;;;;;;;;;;5000493;28;20443;-78
2022/11/18 07:23:57;;;;;;;9.90;6.35;;;;;;;;;;5000358;28;20026;-79
2022/11/18 07:26:22;;;;;;;10.95;6.07;;;;;;;;;;5005558;28;20018;-78
2022/11/18 07:28:48;;;;;;;10.52;6.13;;;;;;;;;;4996320;28;20030;-79
2022/11/18 07:31:16;;;;;;;12.75;6.68;;;;;;;;;;4999824;28;20102;-79
2022/11/18 07:33:42;;;;;;;12.40;6.35;;;;;;;;;;4998547;28;20057;-78
2022/11/18 07:36:11;;;;;;;8.30;4.82;;;;;;;;;;4998525;28;20030;-78
2022/11/18 07:38:36;;;;;;;8.85;5.07;;;;;;;;;;4992304;28;20054;-79
2022/11/18 07:41:07;;;;;;;8.57;4.68;;;;;;;;;;4995486;28;20435;-79
2022/11/18 07:43:34;;;;;;;13.57;7.57;;;;;;;;;;5000840;28;20038;-80
2022/11/18 07:46:17;;;;;;;13.18;6.32;;;;;;;;;;5009619;28;20034;-78
2022/11/18 07:48:44;;;;;;;13.45;5.28;;;;;;;;;;5009318;28;20026;-78
2022/11/18 07:51:11;;;;;;;6.45;3.58;;;;;;;;;;5018807;28;20427;-79
2022/11/18 07:53:36;;;;;;;12.45;7.00;;;;;;;;;;5001896;28;20026;-77
2022/11/18 07:56:03;;;;;;;13.82;7.15;;;;;;;;;;5018275;28;20167;-79
2022/11/18 07:58:28;;;;;;;8.88;4.80;;;;;;;;;;5017930;28;20041;-79
2022/11/18 08:00:53;;;;;;;10.80;5.75;;;;;;;;;;5004391;28;20029;-78
2022/11/18 08:03:24;;;;;;;10.40;5.95;;;;;;;;;;5040470;28;20063;-80
2022/11/18 08:05:50;;;;;;;14.50;6.00;;;;;;;;;;5021555;28;20025;-78
2022/11/18 08:08:15;;;;;;;9.85;6.22;;;;;;;;;;5040405;28;20131;-79
2022/11/18 08:10:40;;;;;;;9.32;3.55;;;;;;;;;;5020690;28;20017;-79
2022/11/18 08:13:05;;;;;;;5.03;3.05;;;;;;;;;;5039614;28;20025;-80
2022/11/18 08:15:31;;;;;;;5.43;3.15;;;;;;;;;;5038862;28;20052;-78
2022/11/18 08:18:06;;;;;;;;;;;;;;;;;;;;;
2022/11/18 08:20:33;;;;;;;11.90;5.18;;;;;;;;;;5009848;28;20509;-78
2022/11/18 08:22:58;;;;;;;7.05;4.70;;;;;;;;;;5004166;28;20145;-78
2022/11/18 08:25:24;;;;;;;11.82;6.65;;;;;;;;;;5029777;28;20025;-78
2022/11/18 08:27:49;;;;;;;8.38;4.53;;;;;;;;;;5037931;28;20083;-79
2022/11/18 08:30:14;;;;;;;11.98;5.25;;;;;;;;;;5037280;28;20013;-81
2022/11/18 08:32:40;;;;;;;8.00;4.50;;;;;;;;;;5018525;28;20398;-80
2022/11/18 08:35:05;;;;;;;13.57;6.80;;;;;;;;;;5022854;28;20177;-79
2022/11/18 08:37:30;;;;;;;17.10;7.97;;;;;;;;;;5002399;28;20111;-80
2022/11/18 08:39:56;;;;;;;13.20;7.03;;;;;;;;;;5019355;28;20036;-79
2022/11/18 08:42:21;;;;;;;11.25;6.88;;;;;;;;;;5001414;28;20080;-80
2022/11/18 08:44:47;;;;;;;8.40;4.78;;;;;;;;;;5002762;28;20442;-80
2022/11/18 08:47:13;;;;;;;10.77;5.65;;;;;;;;;;4999005;28;20026;-78
2022/11/18 08:49:38;;;;;;;12.75;5.97;;;;;;;;;;5018212;28;20053;-78
2022/11/18 08:52:03;;;;;;;10.15;4.72;;;;;;;;;;5025447;28;20032;-78
2022/11/18 08:54:30;;;;;;;14.23;7.50;;;;;;;;;;5013457;28;20036;-78
2022/11/18 08:56:55;;;;;;;5.68;3.38;;;;;;;;;;5006385;28;20045;-79
2022/11/18 08:59:21;;;;;;;15.40;8.52;;;;;;;;;;5001580;28;20018;-79
2022/11/18 09:01:46;;;;;;;18.00;7.00;;;;;;;;;;4997591;28;20498;-78
2022/11/18 09:04:11;;;;;;;15.90;8.18;;;;;;;;;;4996021;28;20546;-78
2022/11/18 09:06:37;;;;;;;12.55;5.53;;;;;;;;;;5004258;28;20030;-77
2022/11/18 09:09:03;;;;;;;10.45;4.82;;;;;;;;;;5019504;28;20034;-77
2022/11/18 09:11:28;;;;;;;18.13;9.02;;;;;;;;;;5017720;28;20076;-77
2022/11/18 09:13:56;;;;;;;11.32;6.03;;;;;;;;;;5009385;28;20041;-79
2022/11/18 09:16:22;;;;;;;9.07;4.88;;;;;;;;;;4996516;28;20034;-79
2022/11/18 09:18:51;;;;;;;18.60;7.50;;;;;;;;;;4992781;28;20022;-78
2022/11/18 09:21:17;;;;;;;16.33;6.93;;;;;;;;;;4997306;28;20026;-78
2022/11/18 09:23:42;;;;;;;12.07;6.07;;;;;;;;;;5022071;28;20093;-78
2022/11/18 09:26:11;;;;;;;13.18;7.05;;;;;;;;;;5004365;28;20116;-78
2022/11/18 09:28:36;;;;;;;16.00;7.82;;;;;;;;;;5004024;28;20552;-79
2022/11/18 09:31:11;;;;;;;14.52;7.20;;;;;;;;;;5021595;28;20029;-79
2022/11/18 09:33:37;;;;;;;18.25;7.57;;;;;;;;;;5034992;28;20044;-78
2022/11/18 09:36:03;;;;;;;13.18;6.82;;;;;;;;;;5002182;28;20034;-79
2022/11/18 09:38:30;;;;;;;17.45;8.85;;;;;;;;;;4997627;28;20038;-78
2022/11/18 09:41:12;;;;;;;12.18;5.35;;;;;;;;;;5001714;28;20107;-77
2022/11/18 09:44:08;;;;;;;11.30;5.25;;;;;;;;;;5036408;28;20044;-78
2022/11/18 09:46:52;;;;;;;17.90;9.10;;;;;;;;;;5035855;28;20037;-78
2022/11/18 09:49:30;;;;;;;13.82;7.55;;;;;;;;;;5022942;28;20102;-79
2022/11/18 09:51:57;;;;;;;13.65;7.68;;;;;;;;;;5017709;28;20030;-77
2022/11/18 09:54:30;;;;;;;17.20;9.20;;;;;;;;;;5018745;28;20075;-79
2022/11/18 09:56:55;;;;;;;21.70;10.23;;;;;;;;;;5017730;28;20022;-78
2022/11/18 09:59:26;;;;;;;18.92;10.07;;;;;;;;;;5017893;28;20040;-77
2022/11/18 10:01:56;;;;;;;23.13;10.82;;;;;;;;;;5016991;28;20679;-79
2022/11/18 10:04:21;;;;;;;20.20;9.98;;;;;;;;;;5015734;28;20029;-77
2022/11/18 10:06:48;;;;;;;13.80;7.65;;;;;;;;;;5016687;28;20029;-77
2022/11/18 10:09:25;;;;;;;15.70;8.15;;;;;;;;;;5017536;28;20037;-77
2022/11/18 10:12:15;;;;;;;11.27;5.95;;;;;;;;;;5017898;28;20022;-78
2022/11/18 10:15:17;;;;;;;16.95;8.85;;;;;;;;;;5017185;28;20081;-78
2022/11/18 10:18:18;;;;;;;7.35;3.97;;;;;;;;;;5016772;28;20075;-77
2022/11/18 10:20:59;;;;;;;13.68;7.10;;;;;;;;;;4974171;28;20495;-79
2022/11/18 10:23:30;;;;;;;12.90;6.95;;;;;;;;;;4997234;28;20146;-75
2022/11/18 10:25:55;;;;;;;16.63;7.65;;;;;;;;;;4980187;28;20053;-77
2022/11/18 10:28:28;;;;;;;11.18;4.97;;;;;;;;;;4997388;28;20034;-76
2022/11/18 10:31:03;;;;;;;17.07;8.50;;;;;;;;;;4996197;28;20022;-77
2022/11/18 10:33:28;;;;;;;16.45;8.32;;;;;;;;;;5033242;28;20083;-77
2022/11/18 10:36:15;;;;;;;17.25;8.07;;;;;;;;;;5036528;28;20029;-77
2022/11/18 10:38:41;;;;;;;15.38;8.23;;;;;;;;;;5035515;28;20025;-77
2022/11/18 10:41:13;;;;;;;16.52;8.80;;;;;;;;;;5016971;28;20372;-77
2022/11/18 10:43:47;;;;;;;15.02;7.90;;;;;;;;;;5017724;28;20021;-77
2022/11/18 10:46:24;;;;;;;14.48;7.93;;;;;;;;;;5035739;28;20025;-77
2022/11/18 10:49:08;;;;;;;14.45;7.75;;;;;;;;;;5035492;28;20059;-77
2022/11/18 10:51:35;;;;;;;14.63;7.80;;;;;;;;;;5034555;28;20025;-78
2022/11/18 10:54:14;;;;;;;13.60;7.10;;;;;;;;;;4998339;28;20076;-77
2022/11/18 10:56:52;;;;;;;13.18;7.40;;;;;;;;;;4997800;28;20112;-77
2022/11/18 10:59:27;;;;;;;12.80;7.07;;;;;;;;;;5015416;28;20368;-77
2022/11/18 11:01:58;;;;;;;12.23;7.05;;;;;;;;;;5015297;28;20029;-77
2022/11/18 11:04:24;;;;;;;13.75;8.15;;;;;;;;;;5015151;28;20030;-76
2022/11/18 11:06:49;;;;;;;17.00;8.70;;;;;;;;;;5002027;28;20380;-77
2022/11/18 11:09:14;;;;;;;12.10;7.03;;;;;;;;;;5034913;28;20036;-77
2022/11/18 11:11:53;;;;;;;14.52;7.70;;;;;;;;;;5017216;28;20025;-79
2022/11/18 11:14:23;;;;;;;12.15;6.38;;;;;;;;;;5036274;28;20034;-78
2022/11/18 11:16:57;;;;;;;14.80;7.90;;;;;;;;;;5034946;28;20021;-77
2022/11/18 11:19:27;;;;;;;16.77;9.43;;;;;;;;;;5035232;28;20100;-76
2022/11/18 11:21:53;;;;;;;16.55;9.07;;;;;;;;;;5009159;28;20033;-77
2022/11/18 11:24:20;;;;;;;17.30;9.05;;;;;;;;;;5015591;28;20411;-77
2022/11/18 11:27:13;;;;;;;15.13;7.88;;;;;;;;;;4998025;28;20407;-77
2022/11/18 11:30:12;;;;;;;14.05;8.38;;;;;;;;;;5015131;28;20030;-78
2022/11/18 11:32:59;;;;;;;11.80;6.15;;;;;;;;;;5007576;28;20504;-77
2022/11/18 11:35:43;;;;;;;18.58;8.82;;;;;;;;;;5015447;28;20041;-77
2022/11/18 11:38:31;;;;;;;11.95;6.72;;;;;;;;;;5005732;28;20018;-78
2022/11/18 11:41:21;;;;;;;15.70;8.10;;;;;;;;;;5014458;28;20034;-77
2022/11/18 11:43:56;;;;;;;14.88;8.05;;;;;;;;;;4997127;28;20441;-76
2022/11/18 11:49:52;;;;;;;16.25;8.95;;;;;;;;;;4997080;28;20032;-76
2022/11/18 11:52:30;;;;;;;19.42;10.30;;;;;;;;;;4995940;28;20068;-77
2022/11/18 11:55:02;;;;;;;18.10;10.10;;;;;;;;;;4997880;28;20399;-76
2022/11/18 11:57:42;;;;;;;16.27;8.63;;;;;;;;;;4996740;28;20029;-76
2022/11/18 12:00:13;;;;;;;16.58;8.98;;;;;;;;;;5014473;28;20051;-76
2022/11/18 12:03:14;;;;;;;21.67;10.63;;;;;;;;;;5014330;28;20088;-75
2022/11/18 12:05:41;;;;;;;18.25;10.02;;;;;;;;;;4972514;28;20111;-76
2022/11/18 12:08:19;;;;;;;22.20;12.43;;;;;;;;;;4996356;28;20026;-76
2022/11/18 12:10:56;;;;;;;18.17;10.02;;;;;;;;;;5026291;28;20025;-77
2022/11/18 12:13:53;;;;;;;20.38;10.38;;;;;;;;;;5033455;28;20029;-76
2022/11/18 12:16:29;;;;;;;20.35;11.48;;;;;;;;;;4994329;28;20514;-77
2022/11/18 12:19:05;;;;;;;13.85;8.02;;;;;;;;;;4993110;28;20026;-76
2022/11/18 12:21:46;;;;;;;24.48;11.68;;;;;;;;;;4992911;28;20037;-78
2022/11/18 12:24:17;;;;;;;19.58;11.60;;;;;;;;;;4994041;28;20061;-77
2022/11/18 12:26:47;;;;;;;14.18;8.27;;;;;;;;;;4994154;28;20037;-77
2022/11/18 12:29:21;;;;;;;22.73;11.93;;;;;;;;;;5004304;28;20022;-77
2022/11/18 12:31:49;;;;;;;21.08;10.43;;;;;;;;;;5015706;28;20528;-77
2022/11/18 12:34:25;;;;;;;21.63;11.68;;;;;;;;;;5033598;28;20108;-77
2022/11/18 12:36:52;;;;;;;23.42;10.95;;;;;;;;;;5015533;28;20414;-77
2022/11/18 12:39:24;;;;;;;10.95;6.70;;;;;;;;;;5015495;28;20021;-77
2022/11/18 12:44:33;;;;;;;18.75;10.43;;;;;;;;;;5017036;28;20529;-77
2022/11/18 12:47:03;;;;;;;20.67;10.18;;;;;;;;;;4996056;28;20026;-77
2022/11/18 12:49:28;;;;;;;19.85;10.48;;;;;;;;;;5013694;28;20072;-76
2022/11/18 12:51:58;;;;;;;16.38;8.98;;;;;;;;;;5013247;28;20022;-76
2022/11/18 12:54:25;;;;;;;18.42;9.35;;;;;;;;;;5013578;28;20487;-77
2022/11/18 12:56:52;;;;;;;19.92;10.63;;;;;;;;;;5000620;28;20101;-77
2022/11/18 12:59:35;;;;;;;23.70;12.70;;;;;;;;;;5021096;28;20030;-79
2022/11/18 13:02:09;;;;;;;25.85;12.98;;;;;;;;;;5012789;28;20022;-78
2022/11/18 13:04:35;;;;;;;15.32;8.77;;;;;;;;;;5020095;28;20140;-78
2022/11/18 13:07:04;;;;;;;22.33;11.82;;;;;;;;;;5016784;28;20141;-77
2022/11/18 13:09:32;;;;;;;21.92;11.80;;;;;;;;;;5006603;28;20123;-76
2022/11/18 13:12:04;;;;;;;25.73;13.05;;;;;;;;;;4997334;28;20025;-79
2022/11/18 13:17:50;;;;;;;24.92;12.55;;;;;;;;;;5007711;28;20398;-78
2022/11/18 13:20:30;;;;;;;19.27;9.85;;;;;;;;;;5017115;28;20037;-79
2022/11/18 13:25:45;;;;;;;15.27;7.70;;;;;;;;;;5036914;28;20406;-79
2022/11/18 13:28:30;;;;;;;24.35;11.45;;;;;;;;;;5020296;28;20034;-78
2022/11/18 13:31:08;;;;;;;23.63;11.75;;;;;;;;;;5035864;28;20032;-79
2022/11/18 13:33:36;;;;;;;24.35;13.00;;;;;;;;;;5015567;28;20037;-78
2022/11/18 13:36:01;;;;;;;21.67;11.20;;;;;;;;;;5003811;28;20038;-78
2022/11/18 13:38:26;;;;;;;10.25;6.00;;;;;;;;;;5020901;28;20040;-78
2022/11/18 13:41:05;;;;;;;18.35;10.43;;;;;;;;;;5006684;28;20030;-78
2022/11/18 13:43:31;;;;;;;17.10;8.65;;;;;;;;;;4992084;28;20033;-77
2022/11/18 13:46:03;;;;;;;15.60;8.52;;;;;;;;;;5026515;28;20037;-79
2022/11/18 13:48:30;;;;;;;20.25;10.93;;;;;;;;;;5000472;28;20050;-79
2022/11/18 13:50:57;;;;;;;17.70;9.57;;;;;;;;;;5000191;28;20029;-77
2022/11/18 13:53:25;;;;;;;21.23;12.23;;;;;;;;;;5016170;28;20033;-79
2022/11/18 13:55:56;;;;;;;22.48;11.35;;;;;;;;;;5016670;28;20256;-78
2022/11/18 13:58:32;;;;;;;20.85;11.52;;;;;;;;;;5002076;28;20032;-78
2022/11/18 14:01:04;;;;;;;20.15;10.10;;;;;;;;;;5036312;28;20037;-79
2022/11/18 14:03:48;;;;;;;19.65;10.98;;;;;;;;;;5036078;28;20041;-79
2022/11/18 14:06:31;;;;;;;17.23;9.55;;;;;;;;;;5019885;28;20029;-78
2022/11/18 14:09:12;;;;;;;17.88;8.82;;;;;;;;;;5024822;28;20100;-78
2022/11/18 14:11:40;;;;;;;19.40;10.30;;;;;;;;;;5010651;28;20594;-80
2022/11/18 14:14:08;;;;;;;14.23;8.23;;;;;;;;;;5017641;28;20044;-77
2022/11/18 14:16:36;;;;;;;23.17;12.63;;;;;;;;;;5014460;28;20502;-79
2022/11/18 14:19:03;;;;;;;25.30;11.40;;;;;;;;;;4996766;28;20026;-77
2022/11/18 14:21:37;;;;;;;22.80;11.75;;;;;;;;;;5013695;28;20100;-76
2022/11/18 14:24:04;;;;;;;15.68;8.43;;;;;;;;;;5014440;28;20533;-79
2022/11/18 14:26:38;;;;;;;18.30;8.25;;;;;;;;;;4998489;28;20490;-77
2022/11/18 14:29:19;;;;;;;21.63;11.05;;;;;;;;;;5022121;28;20052;-76
2022/11/18 14:32:02;;;;;;;11.38;6.47;;;;;;;;;;5033441;28;20025;-76
2022/11/18 14:34:29;;;;;;;15.77;8.77;;;;;;;;;;5034180;28;20159;-76
2022/11/18 14:36:54;;;;;;;24.92;12.95;;;;;;;;;;5035584;28;20025;-76
2022/11/18 14:39:28;;;;;;;22.23;11.65;;;;;;;;;;5035300;28;20028;-76
2022/11/18 14:41:54;;;;;;;21.35;10.60;;;;;;;;;;5035199;28;20029;-75
2022/11/18 14:44:23;;;;;;;27.33;13.13;;;;;;;;;;5022568;28;20096;-76
2022/11/18 14:46:54;;;;;;;26.50;14.35;;;;;;;;;;4998985;28;20064;-75
2022/11/18 14:49:22;;;;;;;23.90;12.25;;;;;;;;;;4998049;28;20156;-77
2022/11/18 14:51:48;;;;;;;20.35;9.93;;;;;;;;;;4997700;28;20040;-75
2022/11/18 14:54:18;;;;;;;17.92;9.32;;;;;;;;;;5015600;28;20467;-75
2022/11/18 14:56:45;;;;;;;22.92;12.15;;;;;;;;;;4998471;28;20108;-75
2022/11/18 14:59:13;;;;;;;14.60;8.05;;;;;;;;;;5015512;28;20026;-76
2022/11/18 15:01:39;;;;;;;15.45;7.93;;;;;;;;;;5015495;28;20034;-75
2022/11/18 15:04:06;;;;;;;20.85;11.00;;;;;;;;;;4997716;28;20034;-75
2022/11/18 15:06:32;;;;;;;19.77;10.57;;;;;;;;;;4998402;28;20022;-75
2022/11/18 15:08:57;;;;;;;27.83;13.00;;;;;;;;;;5015019;28;20033;-76